createdAt,value
2018-08-12T00:01:23.496Z,88.81
2018-08-12T00:03:53.063Z,88.47
2018-08-12T00:06:22.308Z,88.18
2018-08-12T00:08:51.623Z,88.82
2018-08-12T00:11:20.863Z,89.16
2018-08-12T00:13:50.090Z,89.33
2018-08-12T00:16:19.346Z,88.13
2018-08-12T00:18:48.610Z,89.07
2018-08-12T00:21:17.854Z,88.38
2018-08-12T00:23:47.347Z,86.56
2018-08-12T00:26:16.613Z,85.50
2018-08-12T00:28:48.713Z,85.62
2018-08-12T00:31:17.964Z,87.29
2018-08-12T00:33:47.203Z,87.28
2018-08-12T00:36:16.463Z,87.42
2018-08-12T00:38:45.714Z,86.67
2018-08-12T00:41:14.956Z,85.15
2018-08-12T00:43:44.190Z,85.64
2018-08-12T00:46:13.447Z,84.47
2018-08-12T00:48:42.713Z,84.61
2018-08-12T00:51:11.995Z,82.75
2018-08-12T00:53:41.297Z,81.58
2018-08-12T00:56:10.545Z,81.00
2018-08-12T00:58:39.799Z,82.44
2018-08-12T01:01:09.172Z,85.48
2018-08-12T01:03:38.400Z,85.64
2018-08-12T01:06:07.636Z,85.10
2018-08-12T01:08:36.900Z,85.40
2018-08-12T01:11:06.378Z,86.93
2018-08-12T01:13:35.623Z,87.93
2018-08-12T01:16:05.012Z,87.30
2018-08-12T01:18:34.283Z,85.92
2018-08-12T01:21:03.543Z,86.37
2018-08-12T01:23:32.875Z,87.75
2018-08-12T01:26:33.251Z,87.04
2018-08-12T01:29:02.491Z,87.99
2018-08-12T01:31:31.730Z,88.26
2018-08-12T01:34:00.976Z,89.34
2018-08-12T01:36:30.202Z,88.20
2018-08-12T01:38:59.425Z,88.43
2018-08-12T01:41:28.656Z,87.64
2018-08-12T01:43:57.938Z,86.67
2018-08-12T01:46:27.207Z,85.41
2018-08-12T01:48:56.463Z,85.78
2018-08-12T01:51:25.750Z,87.83
2018-08-12T01:53:54.998Z,87.98
2018-08-12T01:56:24.227Z,85.55
2018-08-12T01:58:53.463Z,87.22
2018-08-12T02:01:22.712Z,87.36
2018-08-12T02:03:51.930Z,86.83
2018-08-12T02:06:22.135Z,85.92
2018-08-12T02:08:51.387Z,86.85
2018-08-12T02:11:20.615Z,86.99
2018-08-12T02:13:49.871Z,87.17
2018-08-12T02:16:19.108Z,87.04
2018-08-12T02:18:48.379Z,88.74
2018-08-12T02:21:17.622Z,88.18
2018-08-12T02:23:46.860Z,87.05
2018-08-12T02:26:16.107Z,86.63
2018-08-12T02:28:45.327Z,86.41
2018-08-12T02:31:14.560Z,86.88
2018-08-12T02:33:43.796Z,87.19
2018-08-12T02:36:19.257Z,86.88
2018-08-12T02:38:48.763Z,87.77
2018-08-12T02:41:18.020Z,89.60
2018-08-12T02:43:47.249Z,89.91
2018-08-12T02:46:16.486Z,87.34
2018-08-12T02:48:45.722Z,86.47
2018-08-12T02:51:14.954Z,85.44
2018-08-12T02:53:44.204Z,86.58
2018-08-12T02:56:13.451Z,87.21
2018-08-12T02:58:42.707Z,87.52
2018-08-12T03:01:11.939Z,87.03
2018-08-12T03:03:41.166Z,88.28
2018-08-12T03:06:10.659Z,87.61
2018-08-12T03:08:39.922Z,84.86
2018-08-12T03:11:09.160Z,86.63
2018-08-12T03:13:38.448Z,88.42
2018-08-12T03:16:07.782Z,88.48
2018-08-12T03:18:37.031Z,89.72
2018-08-12T03:21:06.422Z,90.07
2018-08-12T03:23:35.677Z,86.78
2018-08-12T03:26:04.915Z,85.96
2018-08-12T03:28:34.155Z,86.20
2018-08-12T03:31:03.396Z,87.52
2018-08-12T03:33:33.817Z,88.36
2018-08-12T03:36:03.283Z,87.97
2018-08-12T03:38:32.527Z,85.48
2018-08-12T03:41:01.781Z,85.27
2018-08-12T03:43:31.033Z,86.85
2018-08-12T03:46:00.255Z,87.70
2018-08-12T03:48:29.494Z,87.95
2018-08-12T03:50:58.748Z,89.22
2018-08-12T03:53:27.976Z,87.81
2018-08-12T03:55:57.235Z,87.16
2018-08-12T03:58:26.471Z,87.86
2018-08-12T04:00:55.727Z,86.34
2018-08-12T04:03:24.953Z,85.11
2018-08-12T04:05:54.197Z,87.37
2018-08-12T04:08:23.417Z,87.53
2018-08-12T04:10:52.663Z,88.58
2018-08-12T04:13:21.911Z,86.60
2018-08-12T04:15:51.177Z,87.13
2018-08-12T04:18:20.395Z,85.93
2018-08-12T04:20:49.703Z,86.10
2018-08-12T04:23:18.975Z,85.35
2018-08-12T04:25:48.279Z,85.68
2018-08-12T04:28:17.610Z,87.13
2018-08-12T04:30:46.858Z,87.37
2018-08-12T04:33:16.117Z,89.81
2018-08-12T04:35:45.418Z,85.81
2018-08-12T04:38:14.688Z,86.90
2018-08-12T04:40:43.943Z,87.13
2018-08-12T04:43:13.150Z,86.33
2018-08-12T04:45:42.487Z,88.37
2018-08-12T04:48:11.711Z,86.86
2018-08-12T04:50:40.961Z,86.51
2018-08-12T04:53:10.215Z,85.71
2018-08-12T04:55:39.454Z,84.98
2018-08-12T04:58:08.726Z,86.75
2018-08-12T05:00:38.002Z,85.01
2018-08-12T05:03:07.255Z,85.24
2018-08-12T05:05:36.480Z,83.59
2018-08-12T05:08:05.943Z,83.76
2018-08-12T05:10:35.209Z,82.08
2018-08-12T05:13:04.467Z,83.74
2018-08-12T05:15:33.699Z,83.81
2018-08-12T05:18:03.156Z,83.96
2018-08-12T05:20:33.166Z,85.24
2018-08-12T05:23:02.456Z,74.35
2018-08-12T05:25:31.709Z,57.75
2018-08-12T05:28:00.979Z,49.07
2018-08-12T05:30:30.256Z,44.77
2018-08-12T05:32:59.483Z,44.76
2018-08-12T05:35:28.719Z,43.98
2018-08-12T05:37:57.994Z,44.80
2018-08-12T05:40:27.250Z,43.09
2018-08-12T05:42:56.521Z,41.72
2018-08-12T05:45:25.775Z,43.10
2018-08-12T05:47:55.035Z,42.30
2018-08-12T05:50:24.315Z,41.28
2018-08-12T05:52:53.559Z,41.06
2018-08-12T05:55:22.823Z,42.17
2018-08-12T05:57:52.050Z,42.62
2018-08-12T06:00:21.396Z,41.01
2018-08-12T06:02:50.763Z,37.18
2018-08-12T06:05:19.940Z,34.32
2018-08-12T06:07:49.182Z,35.29
2018-08-12T06:10:18.464Z,36.33
2018-08-12T06:12:47.711Z,37.00
2018-08-12T06:15:17.648Z,37.70
2018-08-12T06:17:47.129Z,37.04
2018-08-12T06:20:16.406Z,35.73
2018-08-12T06:22:45.639Z,33.85
2018-08-12T06:25:14.880Z,31.91
2018-08-12T06:27:44.374Z,34.77
2018-08-12T06:30:14.819Z,34.86
2018-08-12T06:32:44.088Z,31.16
2018-08-12T06:35:13.560Z,31.71
2018-08-12T06:37:42.802Z,30.87
2018-08-12T06:40:13.205Z,30.41
2018-08-12T06:42:43.614Z,30.82
2018-08-12T06:45:16.070Z,28.90
2018-08-12T06:47:46.435Z,30.06
2018-08-12T06:50:15.722Z,32.60
2018-08-12T06:52:45.004Z,29.12
2018-08-12T06:55:15.170Z,31.91
2018-08-12T06:57:44.894Z,28.95
2018-08-12T07:00:17.668Z,28.66
2018-08-12T07:02:48.258Z,28.80
2018-08-12T07:05:17.538Z,28.51
2018-08-12T07:10:30.451Z,29.14
2018-08-12T07:12:59.711Z,29.29
2018-08-12T07:15:28.994Z,27.94
2018-08-12T07:17:58.245Z,24.73
2018-08-12T07:20:28.732Z,24.17
2018-08-12T07:22:58.022Z,23.53
2018-08-12T07:25:27.355Z,22.24
2018-08-12T07:27:56.619Z,21.66
2018-08-12T07:30:25.867Z,26.33
2018-08-12T07:32:55.126Z,29.51
2018-08-12T07:35:24.313Z,29.57
2018-08-12T07:37:53.536Z,27.96
2018-08-12T07:40:22.851Z,24.38
2018-08-12T07:42:52.147Z,24.50
2018-08-12T07:45:21.454Z,25.11
2018-08-12T07:47:50.735Z,27.20
2018-08-12T07:50:19.997Z,27.71
2018-08-12T07:52:49.238Z,27.60
2018-08-12T07:55:18.495Z,25.55
2018-08-12T07:57:47.740Z,23.79
2018-08-12T08:00:19.513Z,24.09
2018-08-12T08:02:49.035Z,26.48
2018-08-12T08:05:18.283Z,26.03
2018-08-12T08:07:47.542Z,23.13
2018-08-12T08:10:17.743Z,24.88
2018-08-12T08:12:47.318Z,24.76
2018-08-12T08:15:20.708Z,21.32
2018-08-12T08:17:50.798Z,21.07
2018-08-12T08:20:20.728Z,25.70
2018-08-12T08:22:50.379Z,24.85
2018-08-12T08:25:20.828Z,22.88
2018-08-12T08:27:51.769Z,22.89
2018-08-12T08:30:21.154Z,24.50
2018-08-12T08:32:51.318Z,22.83
2018-08-12T08:35:21.736Z,23.10
2018-08-12T08:37:51.039Z,21.04
2018-08-12T08:40:20.312Z,21.58
2018-08-12T08:42:50.804Z,20.70
2018-08-12T08:45:22.626Z,23.10
2018-08-12T08:47:53.492Z,23.78
2018-08-12T08:50:24.345Z,25.22
2018-08-12T08:52:54.869Z,23.25
2018-08-12T08:55:24.247Z,25.51
2018-08-12T08:57:54.915Z,23.75
2018-08-12T09:00:25.696Z,25.30
2018-08-12T09:02:56.298Z,28.87
2018-08-12T09:05:26.745Z,22.42
2018-08-12T09:07:57.354Z,25.57
2018-08-12T09:10:27.929Z,28.27
2018-08-12T09:12:58.545Z,26.27
2018-08-12T09:15:29.142Z,24.85
2018-08-12T09:17:59.641Z,23.20
2018-08-12T09:20:30.256Z,21.53
2018-08-12T09:23:00.547Z,20.12
2018-08-12T09:25:30.741Z,19.93
2018-08-12T09:27:59.990Z,21.10
2018-08-12T09:30:29.235Z,19.29
2018-08-12T09:32:58.466Z,19.54
2018-08-12T09:35:27.763Z,22.24
2018-08-12T09:37:57.098Z,27.91
2018-08-12T09:40:26.352Z,30.38
2018-08-12T09:42:55.614Z,30.62
2018-08-12T09:45:24.936Z,27.70
2018-08-12T09:47:54.202Z,26.69
2018-08-12T09:50:23.442Z,29.61
2018-08-12T09:52:53.595Z,30.11
2018-08-12T09:55:22.997Z,28.69
2018-08-12T09:57:52.227Z,31.01
2018-08-12T10:00:28.268Z,30.75
2018-08-12T10:02:58.130Z,32.26
2018-08-12T10:05:27.696Z,30.62
2018-08-12T10:07:56.943Z,30.40
2018-08-12T10:10:26.242Z,30.32
2018-08-12T10:12:55.497Z,31.05
2018-08-12T10:15:24.772Z,30.01
2018-08-12T10:17:55.785Z,28.92
2018-08-12T10:20:25.040Z,26.81
2018-08-12T10:22:54.294Z,21.95
2018-08-12T10:25:23.586Z,27.28
2018-08-12T10:27:52.827Z,27.72
2018-08-12T10:30:22.089Z,28.84
2018-08-12T10:32:51.508Z,29.43
2018-08-12T10:35:20.869Z,30.47
2018-08-12T10:37:50.231Z,28.38
2018-08-12T10:40:20.622Z,24.52
2018-08-12T10:42:50.609Z,22.99
2018-08-12T10:45:19.927Z,24.63
2018-08-12T10:47:49.366Z,30.63
2018-08-12T10:50:19.888Z,33.44
2018-08-12T10:52:49.899Z,33.13
2018-08-12T10:55:21.836Z,27.54
2018-08-12T10:57:51.287Z,31.55
2018-08-12T11:00:25.454Z,30.67
2018-08-12T11:02:54.840Z,28.08
2018-08-12T11:05:24.177Z,30.76
2018-08-12T11:07:54.940Z,30.06
2018-08-12T11:10:24.389Z,23.01
2018-08-12T11:12:53.632Z,32.39
2018-08-12T11:15:23.038Z,31.55
2018-08-12T11:17:52.272Z,23.18
2018-08-12T11:20:21.640Z,29.77
2018-08-12T11:22:50.850Z,29.77
2018-08-12T11:25:20.940Z,29.45
2018-08-12T11:27:50.183Z,30.64
2018-08-12T11:30:19.433Z,28.30
2018-08-12T11:32:48.701Z,27.26
2018-08-12T11:35:18.200Z,29.05
2018-08-12T11:37:47.534Z,31.11
2018-08-12T11:40:17.121Z,30.80
2018-08-12T11:42:46.357Z,32.26
2018-08-12T11:45:17.707Z,30.95
2018-08-12T11:47:47.900Z,27.94
2018-08-12T11:50:17.986Z,29.76
2018-08-12T11:52:47.460Z,30.55
2018-08-12T11:55:19.558Z,32.12
2018-08-12T11:57:48.818Z,32.66
2018-08-12T12:00:20.330Z,31.95
2018-08-12T12:02:51.720Z,33.41
2018-08-12T12:05:21.020Z,33.58
2018-08-12T12:07:50.223Z,34.14
2018-08-12T12:10:22.019Z,30.83
2018-08-12T12:12:52.032Z,32.48
2018-08-12T12:15:21.276Z,28.23
2018-08-12T12:17:50.539Z,31.81
2018-08-12T12:20:20.228Z,34.07
2018-08-12T12:22:49.546Z,31.39
2018-08-12T12:25:20.105Z,32.76
2018-08-12T12:27:49.387Z,30.34
2018-08-12T12:30:21.481Z,32.71
2018-08-12T12:32:52.091Z,32.29
2018-08-12T12:35:21.434Z,33.67
2018-08-12T12:37:50.756Z,28.38
2018-08-12T12:40:20.289Z,31.96
2018-08-12T12:42:49.645Z,31.98
2018-08-12T12:45:18.851Z,31.05
2018-08-12T12:47:48.104Z,30.42
2018-08-12T12:50:20.631Z,31.12
2018-08-12T12:52:50.746Z,30.96
2018-08-12T12:55:21.159Z,31.02
2018-08-12T12:57:50.423Z,35.05
2018-08-12T13:00:20.658Z,38.16
2018-08-12T13:02:50.126Z,35.73
2018-08-12T13:05:20.442Z,34.33
2018-08-12T13:07:50.346Z,40.37
2018-08-12T13:10:20.636Z,36.10
2018-08-12T13:12:49.867Z,35.14
2018-08-12T13:15:19.143Z,34.69
2018-08-12T13:17:48.423Z,37.14
2018-08-12T13:20:18.855Z,34.50
2018-08-12T13:22:49.179Z,35.35
2018-08-12T13:25:20.113Z,36.48
2018-08-12T13:27:49.363Z,34.85
2018-08-12T13:30:19.409Z,37.03
2018-08-12T13:32:49.285Z,34.02
2018-08-12T13:35:19.818Z,35.30
2018-08-12T13:37:49.168Z,34.79
2018-08-12T13:40:18.578Z,39.65
2018-08-12T13:42:47.962Z,35.91
2018-08-12T13:45:17.250Z,34.67
2018-08-12T13:47:47.183Z,36.47
2018-08-12T13:50:19.896Z,36.51
2018-08-12T13:52:49.583Z,37.88
2018-08-12T13:55:19.502Z,37.70
2018-08-12T13:57:49.366Z,34.84
2018-08-12T14:00:21.047Z,34.90
2018-08-12T14:02:50.347Z,39.93
2018-08-12T14:05:20.018Z,40.88
2018-08-12T14:07:49.668Z,37.31
2018-08-12T14:10:18.935Z,34.91
2018-08-12T14:12:48.186Z,37.92
2018-08-12T14:15:19.180Z,34.58
2018-08-12T14:17:49.257Z,35.62
2018-08-12T14:20:19.624Z,35.17
2018-08-12T14:22:48.868Z,34.38
2018-08-12T14:25:18.105Z,35.71
2018-08-12T14:27:47.372Z,37.53
2018-08-12T14:30:19.140Z,38.05
2018-08-12T14:32:48.923Z,38.31
2018-08-12T14:35:18.266Z,37.13
2018-08-12T14:37:47.547Z,36.01
2018-08-12T14:40:16.928Z,35.94
2018-08-12T14:42:46.464Z,36.09
2018-08-12T14:45:16.374Z,34.04
2018-08-12T14:47:47.383Z,34.44
2018-08-12T14:50:18.903Z,34.72
2018-08-12T14:52:48.239Z,35.04
2018-08-12T14:55:19.542Z,36.18
2018-08-12T14:57:48.910Z,35.14
2018-08-12T15:00:19.834Z,35.44
2018-08-12T15:02:50.118Z,36.48
2018-08-12T15:05:19.716Z,38.88
2018-08-12T15:07:49.130Z,34.85
2018-08-12T15:10:18.663Z,37.78
2018-08-12T15:12:47.940Z,35.23
2018-08-12T15:15:17.625Z,35.21
2018-08-12T15:17:47.387Z,37.52
2018-08-12T15:20:17.328Z,36.38
2018-08-12T15:22:46.765Z,37.24
2018-08-12T15:25:19.131Z,36.15
2018-08-12T15:27:48.606Z,35.85
2018-08-12T15:30:17.867Z,35.50
2018-08-12T15:32:47.173Z,37.72
2018-08-12T15:35:16.502Z,34.90
2018-08-12T15:37:45.761Z,34.47
2018-08-12T15:40:15.751Z,38.32
2018-08-12T15:42:45.242Z,35.75
2018-08-12T15:45:16.927Z,35.06
2018-08-12T15:47:46.707Z,34.58
2018-08-12T15:50:16.097Z,35.04
2018-08-12T15:52:46.346Z,37.11
2018-08-12T15:55:15.846Z,34.67
2018-08-12T15:57:45.098Z,36.15
2018-08-12T16:00:19.257Z,35.30
2018-08-12T16:02:48.528Z,35.11
2018-08-12T16:05:17.795Z,35.03
2018-08-12T16:07:48.011Z,37.24
2018-08-12T16:10:19.914Z,37.80
2018-08-12T16:12:50.202Z,36.31
2018-08-12T16:15:19.625Z,37.82
2018-08-12T16:17:48.991Z,37.83
2018-08-12T16:20:18.258Z,37.63
2018-08-12T16:22:47.579Z,37.38
2018-08-12T16:25:18.503Z,36.41
2018-08-12T16:27:47.904Z,37.39
2018-08-12T16:30:18.556Z,36.92
2018-08-12T16:32:47.974Z,36.99
2018-08-12T16:35:18.098Z,35.52
2018-08-12T16:37:47.974Z,35.99
2018-08-12T16:40:20.610Z,36.92
2018-08-12T16:42:50.238Z,36.94
2018-08-12T16:45:20.021Z,36.25
2018-08-12T16:47:49.370Z,35.85
2018-08-12T16:50:18.675Z,36.33
2018-08-12T16:52:48.112Z,35.72
2018-08-12T16:55:18.553Z,37.08
2018-08-12T16:57:48.387Z,36.38
2018-08-12T17:00:21.574Z,35.62
2018-08-12T17:02:50.924Z,37.08
2018-08-12T17:05:22.260Z,36.94
2018-08-12T17:07:51.902Z,37.46
2018-08-12T17:10:21.526Z,37.85
2018-08-12T17:12:50.891Z,38.58
2018-08-12T17:15:21.288Z,37.63
2018-08-12T17:17:50.853Z,37.46
2018-08-12T17:20:21.202Z,37.54
2018-08-12T17:22:50.878Z,37.73
2018-08-12T17:25:21.045Z,38.41
2018-08-12T17:27:50.345Z,38.27
2018-08-12T17:30:19.891Z,39.73
2018-08-12T17:32:49.236Z,39.60
2018-08-12T17:35:18.564Z,40.19
2018-08-12T17:37:47.918Z,40.17
2018-08-12T17:40:17.277Z,41.26
2018-08-12T17:42:46.618Z,40.97
2018-08-12T17:45:16.006Z,40.09
2018-08-12T17:47:45.347Z,41.62
2018-08-12T17:50:16.050Z,44.66
2018-08-12T17:52:45.751Z,45.52
2018-08-12T17:55:15.064Z,45.34
2018-08-12T17:57:44.382Z,47.00
2018-08-12T18:00:15.492Z,49.24
2018-08-12T18:02:45.188Z,50.42
2018-08-12T18:05:14.510Z,49.54
2018-08-12T18:07:43.994Z,48.72
2018-08-12T18:10:13.313Z,49.84
2018-08-12T18:12:42.613Z,50.05
2018-08-12T18:15:12.474Z,50.02
2018-08-12T18:17:42.535Z,50.63
2018-08-12T18:20:11.990Z,51.22
2018-08-12T18:22:41.288Z,53.12
2018-08-12T18:25:11.739Z,54.06
2018-08-12T18:27:42.298Z,55.65
2018-08-12T18:30:14.540Z,57.72
2018-08-12T18:32:44.047Z,57.69
2018-08-12T18:35:13.881Z,57.60
2018-08-12T18:37:43.467Z,57.25
2018-08-12T18:40:13.290Z,57.89
2018-08-12T18:42:42.573Z,59.67
2018-08-12T18:45:11.959Z,59.81
2018-08-12T18:47:41.330Z,60.41
2018-08-12T18:50:11.648Z,60.99
2018-08-12T18:52:41.571Z,61.90
2018-08-12T18:55:12.319Z,63.82
2018-08-12T18:57:41.673Z,65.18
2018-08-12T19:00:13.440Z,66.17
2018-08-12T19:02:42.739Z,67.66
2018-08-12T19:05:12.903Z,69.71
2018-08-12T19:07:42.239Z,70.95
2018-08-12T19:10:12.227Z,72.18
2018-08-12T19:12:42.576Z,72.24
2018-08-12T19:15:12.540Z,72.96
2018-08-12T19:17:41.928Z,72.54
2018-08-12T19:20:12.216Z,73.33
2018-08-12T19:22:42.150Z,72.99
2018-08-12T19:25:12.222Z,73.43
2018-08-12T19:27:42.049Z,74.37
2018-08-12T19:30:12.809Z,73.71
2018-08-12T19:32:43.494Z,75.17
2018-08-12T19:35:13.121Z,75.25
2018-08-12T19:37:42.470Z,74.81
2018-08-12T19:40:11.832Z,72.34
2018-08-12T19:42:41.187Z,72.73
2018-08-12T19:45:11.688Z,74.73
2018-08-12T19:47:40.987Z,75.83
2018-08-12T19:50:10.350Z,75.08
2018-08-12T19:52:39.724Z,74.90
2018-08-12T19:55:09.097Z,73.37
2018-08-12T19:57:38.506Z,74.99
2018-08-12T20:00:11.301Z,74.22
2018-08-12T20:02:40.795Z,76.60
2018-08-12T20:05:10.137Z,79.20
2018-08-12T20:07:39.782Z,80.54
2018-08-12T20:10:10.689Z,81.44
2018-08-12T20:12:40.019Z,82.30
2018-08-12T20:15:11.336Z,81.72
2018-08-12T20:17:41.248Z,81.78
2018-08-12T20:20:12.624Z,82.78
2018-08-12T20:22:42.016Z,82.50
2018-08-12T20:25:12.937Z,83.12
2018-08-12T20:27:42.358Z,81.07
2018-08-12T20:30:13.826Z,81.41
2018-08-12T20:32:44.435Z,81.19
2018-08-12T20:35:14.281Z,81.18
2018-08-12T20:37:45.185Z,83.57
2018-08-12T20:40:15.272Z,84.94
2018-08-12T20:42:44.881Z,84.59
2018-08-12T20:45:14.560Z,85.51
2018-08-12T20:47:44.249Z,86.21
2018-08-12T20:50:14.805Z,86.15
2018-08-12T20:52:44.266Z,86.00
2018-08-12T20:55:13.729Z,85.60
2018-08-12T20:57:43.058Z,86.05
2018-08-12T21:00:12.839Z,83.21
2018-08-12T21:02:42.602Z,82.02
2018-08-12T21:05:12.013Z,84.95
2018-08-12T21:07:42.288Z,86.18
2018-08-12T21:10:12.526Z,84.10
2018-08-12T21:12:42.179Z,85.30
2018-08-12T21:15:11.646Z,84.53
2018-08-12T21:17:40.940Z,85.88
2018-08-12T21:20:10.616Z,86.86
2018-08-12T21:22:40.343Z,88.10
2018-08-12T21:25:09.705Z,88.30
2018-08-12T21:27:39.015Z,87.75
2018-08-12T21:30:08.438Z,87.12
2018-08-12T21:32:37.819Z,86.76
2018-08-12T21:35:07.709Z,87.61
2018-08-12T21:37:37.341Z,89.48
2018-08-12T21:40:06.833Z,89.32
2018-08-12T21:42:36.653Z,89.17
2018-08-12T21:45:07.084Z,86.81
2018-08-12T21:47:37.845Z,88.05
2018-08-12T21:50:08.605Z,88.71
2018-08-12T21:52:38.413Z,89.03
2018-08-12T21:55:07.844Z,89.29
2018-08-12T21:57:37.179Z,89.09
2018-08-12T22:00:12.041Z,89.46
2018-08-12T22:02:41.712Z,89.93
2018-08-12T22:05:11.100Z,87.69
2018-08-12T22:07:40.476Z,86.61
2018-08-12T22:10:09.839Z,88.30
2018-08-12T22:12:39.169Z,87.43
2018-08-12T22:15:09.154Z,87.71
2018-08-12T22:17:38.763Z,86.90
2018-08-12T22:20:08.237Z,89.13
2018-08-12T22:22:37.547Z,91.07
2018-08-12T22:25:06.974Z,91.53
2018-08-12T22:27:36.356Z,90.60
2018-08-12T22:30:07.526Z,88.22
2018-08-12T22:32:36.916Z,88.20
2018-08-12T22:35:06.351Z,88.29
2018-08-12T22:37:35.695Z,89.50
2018-08-12T22:40:06.187Z,90.89
2018-08-12T22:42:35.638Z,91.28
2018-08-12T22:45:06.167Z,90.64
2018-08-12T22:47:35.550Z,88.77
2018-08-12T22:50:05.705Z,88.51
2018-08-12T22:52:34.994Z,89.21
2018-08-12T22:55:05.008Z,88.95
2018-08-12T22:57:35.264Z,88.01
2018-08-12T23:00:07.986Z,88.14
2018-08-12T23:02:37.326Z,88.17
2018-08-12T23:05:06.686Z,87.36
2018-08-12T23:07:36.089Z,89.29
2018-08-12T23:10:06.815Z,87.74
2018-08-12T23:12:36.184Z,88.32
2018-08-12T23:15:22.477Z,88.79
2018-08-12T23:17:51.764Z,89.07
2018-08-12T23:20:21.139Z,90.05
2018-08-12T23:22:50.504Z,89.59
2018-08-12T23:25:20.415Z,89.11
2018-08-12T23:27:49.827Z,89.13
2018-08-12T23:30:19.195Z,88.95
2018-08-12T23:32:48.569Z,88.68
2018-08-12T23:35:17.949Z,87.51
2018-08-12T23:37:47.287Z,87.43
2018-08-12T23:40:16.635Z,87.72
2018-08-12T23:42:45.982Z,86.73
2018-08-12T23:45:15.303Z,88.67
2018-08-12T23:47:44.628Z,88.79
2018-08-12T23:50:13.945Z,88.51
2018-08-12T23:52:43.309Z,90.04
2018-08-12T23:55:12.642Z,90.68
2018-08-12T23:57:42.051Z,90.10
